Time;durP1;ratioP1;P1;durP2;ratioP2;P2;SDS_P1;SDS_P2;PMS_P1;PMS_P2;Temp;Humidity;BMP_temperature;BMP_pressure;BME280_temperature;BME280_humidity;BME280_pressure;Samples;Min_cycle;Max_cycle;Signal;HPM_P1;HPM_P2
2022/11/11 00:02:37;;;;;;;;;;;;;;;8.03;78.22;99742.75;7401781;19;19957;-78
2022/11/11 00:05:23;;;;;;;;;;;;;;;7.86;78.59;99741.28;7400799;19;19955;-77
2022/11/11 00:08:08;;;;;;;;;;;;;;;7.92;78.66;99751.41;7398441;19;19926;-77
2022/11/11 00:10:58;;;;;;;;;;;;;;;7.85;79.02;99734.34;7402087;19;19929;-78
2022/11/11 00:13:43;;;;;;;;;;;;;;;7.86;78.35;99733.41;7397944;19;19929;-77
2022/11/11 00:25:04;;;;;;;;;;;;;;;7.77;78.83;99744.56;7399727;19;19927;-77
2022/11/11 00:25:41;;;;;;;;;;;;;;;7.65;78.64;99744.44;7402807;19;19949;-78
2022/11/11 00:28:27;;;;;;;;;;;;;;;7.62;78.45;99747.28;7402454;19;19949;-78
2022/11/11 00:31:12;;;;;;;;;;;;;;;7.66;78.63;99750.53;7400158;19;19929;-77
2022/11/11 00:33:58;;;;;;;;;;;;;;;7.75;78.76;99749.94;7396372;19;19938;-78
2022/11/11 00:36:44;;;;;;;;;;;;;;;7.83;78.52;99744.16;7401924;19;19926;-78
2022/11/11 00:39:28;;;;;;;;;;;;;;;7.73;78.34;99749.19;7401743;19;19918;-78
2022/11/11 00:42:13;;;;;;;;;;;;;;;7.73;78.09;99757.09;7397086;19;19910;-78
2022/11/11 00:44:59;;;;;;;;;;;;;;;7.62;78.46;99754.34;7399673;19;19929;-77
2022/11/11 00:50:57;;;;;;;;;;;;;;;7.52;78.86;99751.47;7399667;19;19918;-78
2022/11/11 00:53:45;;;;;;;;;;;;;;;7.45;78.48;99766.00;7399921;19;20246;-78
2022/11/11 00:56:31;;;;;;;;;;;;;;;7.35;78.70;99778.94;7399971;19;20249;-77
2022/11/11 00:59:16;;;;;;;;;;;;;;;7.32;78.78;99784.41;7398971;19;20251;-78
2022/11/11 01:02:01;;;;;;;;;;;;;;;7.32;78.72;99784.41;7398961;19;19990;-78
2022/11/11 01:04:49;;;;;;;;;;;;;;;7.28;79.05;99776.81;7396896;19;20294;-77
2022/11/11 01:07:35;;;;;;;;;;;;;;;7.32;79.20;99773.88;7398156;19;19926;-77
2022/11/11 01:10:40;;;;;;;;;;;;;;;7.41;79.06;99775.88;7399554;19;19925;-77
2022/11/11 01:13:27;;;;;;;;;;;;;;;7.36;77.90;99774.50;7394154;19;20004;-78
2022/11/11 01:16:13;;;;;;;;;;;;;;;7.44;77.85;99765.16;7395149;19;20000;-78
2022/11/11 01:18:58;;;;;;;;;;;;;;;7.49;77.39;99767.47;7398319;19;19991;-78
2022/11/11 01:21:44;;;;;;;;;;;;;;;7.50;77.42;99756.00;7403083;19;19925;-78
2022/11/11 01:24:30;;;;;;;;;;;;;;;7.35;77.66;99757.03;7395494;19;19929;-78
2022/11/11 01:27:14;;;;;;;;;;;;;;;7.43;77.29;99760.84;7398821;19;20008;-78
2022/11/11 01:30:02;;;;;;;;;;;;;;;7.31;77.79;99751.09;7399055;19;19926;-78
2022/11/11 01:32:47;;;;;;;;;;;;;;;7.14;78.35;99760.13;7394839;19;19926;-78
2022/11/11 01:35:36;;;;;;;;;;;;;;;7.15;78.17;99764.44;7396153;19;19953;-78
2022/11/11 01:38:22;;;;;;;;;;;;;;;7.04;78.65;99770.41;7394247;19;19937;-77
2022/11/11 01:44:13;;;;;;;;;;;;;;;7.36;78.75;99774.50;7391886;19;19994;-78
2022/11/11 01:46:59;;;;;;;;;;;;;;;7.48;78.38;99771.91;7397651;19;19942;-77
2022/11/11 01:49:52;;;;;;;;;;;;;;;7.48;78.50;99768.44;7394112;19;19929;-77
2022/11/11 01:52:38;;;;;;;;;;;;;;;7.39;78.43;99771.66;7394187;19;20565;-77
2022/11/11 01:55:24;;;;;;;;;;;;;;;7.32;77.48;99765.09;7396576;19;19964;-77
2022/11/11 01:58:10;;;;;;;;;;;;;;;7.29;77.28;99760.06;7393799;19;19926;-77
2022/11/11 02:00:56;;;;;;;;;;;;;;;7.15;77.66;99756.53;7395623;19;19934;-77
2022/11/11 02:05:40;;;;;;;;;;;;;;;7.12;77.98;99762.00;7392750;19;20044;-77
2022/11/11 02:06:51;;;;;;;;;;;;;;;7.08;77.94;99759.66;7394708;19;20366;-78
2022/11/11 02:09:38;;;;;;;;;;;;;;;7.04;77.97;99772.19;7394168;19;19934;-78
2022/11/11 02:15:27;;;;;;;;;;;;;;;7.13;78.74;99784.72;7412346;19;19936;-77
2022/11/11 02:18:13;;;;;;;;;;;;;;;7.26;78.54;99784.78;7425596;19;19931;-78
2022/11/11 02:20:58;;;;;;;;;;;;;;;7.20;78.96;99772.03;7412345;19;19935;-78
2022/11/11 02:23:56;;;;;;;;;;;;;;;7.16;78.59;99773.16;7395521;19;19925;-78
2022/11/11 02:26:41;;;;;;;;;;;;;;;7.14;78.63;99782.97;7395802;19;19933;-79
2022/11/11 02:29:27;;;;;;;;;;;;;;;7.03;78.63;99767.88;7395094;19;19961;-79
2022/11/11 02:32:12;;;;;;;;;;;;;;;7.03;78.82;99768.72;7394973;19;19933;-78
2022/11/11 02:34:57;;;;;;;;;;;;;;;7.09;78.96;99764.00;7393734;19;19949;-78
2022/11/11 02:37:44;;;;;;;;;;;;;;;7.15;78.76;99772.31;7395639;19;19964;-78
2022/11/11 02:40:32;;;;;;;;;;;;;;;7.03;78.63;99758.19;7393599;19;20266;-78
2022/11/11 02:43:17;;;;;;;;;;;;;;;7.08;78.99;99772.81;7393788;19;19933;-79
2022/11/11 02:46:03;;;;;;;;;;;;;;;7.17;78.82;99770.44;7396881;19;19929;-78
2022/11/11 02:48:48;;;;;;;;;;;;;;;7.13;78.81;99773.38;7395280;19;19957;-78
2022/11/11 02:51:33;;;;;;;;;;;;;;;7.15;78.76;99771.50;7393763;19;19957;-78
2022/11/11 02:54:18;;;;;;;;;;;;;;;7.15;78.55;99767.06;7395940;19;19951;-77
2022/11/11 02:57:06;;;;;;;;;;;;;;;7.15;78.58;99768.84;7397208;19;19925;-77
2022/11/11 02:59:52;;;;;;;;;;;;;;;7.07;78.46;99758.81;7400225;19;19921;-79
2022/11/11 03:02:38;;;;;;;;;;;;;;;6.99;78.64;99761.13;7400049;19;20350;-79
2022/11/11 03:05:23;;;;;;;;;;;;;;;6.90;78.89;99757.28;7399436;19;19956;-78
2022/11/11 03:08:08;;;;;;;;;;;;;;;6.98;79.12;99749.75;7402354;19;19926;-79
2022/11/11 03:10:54;;;;;;;;;;;;;;;6.97;78.87;99752.47;7400980;19;19952;-79
2022/11/11 03:13:40;;;;;;;;;;;;;;;6.94;78.81;99756.13;7401810;19;19930;-79
2022/11/11 03:19:30;;;;;;;;;;;;;;;7.03;78.65;99752.94;7398534;19;20381;-78
2022/11/11 03:22:15;;;;;;;;;;;;;;;6.98;78.54;99746.28;7396697;19;19938;-80
2022/11/11 03:25:38;;;;;;;;;;;;;;;6.94;78.12;99752.66;7397093;19;20680;-79
2022/11/11 03:28:24;;;;;;;;;;;;;;;6.75;78.60;99753.84;7399307;19;19922;-78
2022/11/11 03:31:09;;;;;;;;;;;;;;;6.72;78.57;99748.78;7393894;19;19926;-78
2022/11/11 03:33:55;;;;;;;;;;;;;;;6.67;79.14;99752.66;7394483;19;19929;-77
2022/11/11 03:39:44;;;;;;;;;;;;;;;6.68;78.52;99755.16;7399029;19;19918;-79
2022/11/11 03:42:29;;;;;;;;;;;;;;;6.77;78.54;99743.25;7397070;19;19934;-79
2022/11/11 03:45:14;;;;;;;;;;;;;;;6.71;78.60;99749.72;7397576;19;19939;-79
2022/11/11 03:47:59;;;;;;;;;;;;;;;6.84;78.21;99754.19;7397495;19;20380;-78
2022/11/11 03:50:46;;;;;;;;;;;;;;;6.92;78.01;99758.00;7397409;19;19918;-79
2022/11/11 03:53:32;;;;;;;;;;;;;;;7.01;77.67;99760.06;7395988;19;19927;-79
2022/11/11 03:56:17;;;;;;;;;;;;;;;6.93;77.54;99770.25;7395303;19;20279;-79
2022/11/11 03:59:02;;;;;;;;;;;;;;;6.77;77.81;99788.78;7397855;19;19950;-79
2022/11/11 04:10:59;;;;;;;;;;;;;;;6.58;78.45;99796.13;7402681;19;19926;-77
2022/11/11 04:16:49;;;;;;;;;;;;;;;6.55;78.55;99784.00;7404521;19;19999;-80
2022/11/11 04:22:47;;;;;;;;;;;;;;;6.56;78.73;99782.25;7400366;19;19929;-78
2022/11/11 04:25:47;;;;;;;;;;;;;;;6.69;77.74;99775.28;7402207;19;19958;-79
2022/11/11 04:32:34;;;;;;;;;;;;;;;6.81;77.51;99768.38;7404399;19;20014;-80
2022/11/11 04:34:42;;;;;;;;;;;;;;;6.64;78.19;99772.09;7402531;19;19949;-80
2022/11/11 04:37:29;;;;;;;;;;;;;;;6.68;78.04;99775.38;7403425;19;19966;-79
2022/11/11 04:43:19;;;;;;;;;;;;;;;6.59;78.54;99777.63;7402278;19;20688;-78
2022/11/11 04:46:04;;;;;;;;;;;;;;;6.56;78.58;99782.25;7406561;19;19917;-78
2022/11/11 04:48:49;;;;;;;;;;;;;;;6.54;78.04;99798.13;7409987;19;19940;-80
2022/11/11 04:56:46;;;;;;;;;;;;;;;6.31;78.02;99806.56;7406300;19;19925;-79
2022/11/11 04:57:44;;;;;;;;;;;;;;;6.19;78.28;99823.06;7405582;19;19933;-78
2022/11/11 05:00:29;;;;;;;;;;;;;;;6.29;78.76;99813.69;7406908;19;19962;-78
2022/11/11 05:03:17;;;;;;;;;;;;;;;6.26;78.26;99824.41;7400576;19;19933;-80
2022/11/11 05:09:08;;;;;;;;;;;;;;;6.47;78.08;99833.59;7404844;19;19953;-80
2022/11/11 05:11:53;;;;;;;;;;;;;;;6.58;77.65;99835.56;7401455;19;19922;-77
2022/11/11 05:26:57;;;;;;;;;;;;;;;6.17;78.55;99861.75;7404672;19;19965;-80
2022/11/11 05:29:42;;;;;;;;;;;;;;;6.09;79.27;99857.78;7403850;19;20250;-77
2022/11/11 05:32:27;;;;;;;;;;;;;;;6.27;78.76;99861.13;7399492;19;19957;-79
2022/11/11 05:35:13;;;;;;;;;;;;;;;6.42;76.95;99861.13;7401025;19;19922;-78
2022/11/11 05:38:19;;;;;;;;;;;;;;;6.56;76.89;99864.59;7403192;19;20405;-80
2022/11/11 05:41:04;;;;;;;;;;;;;;;6.64;76.76;99860.66;7404515;19;19929;-78
2022/11/11 05:43:49;;;;;;;;;;;;;;;6.55;77.10;99868.16;7401087;19;19938;-79
2022/11/11 05:46:34;;;;;;;;;;;;;;;6.63;76.85;99869.47;7398856;19;19933;-78
2022/11/11 05:49:19;;;;;;;;;;;;;;;6.60;76.79;99873.97;7401468;19;19934;-79
2022/11/11 05:52:04;;;;;;;;;;;;;;;6.58;76.88;99882.91;7401228;19;19930;-79
2022/11/11 05:54:49;;;;;;;;;;;;;;;6.49;77.22;99889.56;7400603;19;19930;-79
2022/11/11 05:57:34;;;;;;;;;;;;;;;6.35;77.34;99898.28;7404315;19;19929;-78
2022/11/11 06:00:19;;;;;;;;;;;;;;;6.45;76.99;99893.34;7401993;19;19957;-78
2022/11/11 06:03:05;;;;;;;;;;;;;;;6.39;77.33;99888.44;7400972;19;20270;-78
2022/11/11 06:05:50;;;;;;;;;;;;;;;6.37;78.07;99891.16;7402338;19;19918;-78
2022/11/11 06:08:37;;;;;;;;;;;;;;;6.49;77.60;99896.63;7394574;19;19928;-78
2022/11/11 06:11:22;;;;;;;;;;;;;;;6.53;77.42;99903.38;7395907;19;20491;-78
2022/11/11 06:14:13;;;;;;;;;;;;;;;6.57;76.44;99908.34;7385412;19;19925;-78
2022/11/11 06:16:59;;;;;;;;;;;;;;;6.38;76.93;99907.78;7392686;19;20642;-78
2022/11/11 06:19:43;;;;;;;;;;;;;;;6.41;76.86;99904.97;7390722;19;19957;-77
2022/11/11 06:28:36;;;;;;;;;;;;;;;6.15;77.51;99917.84;7389103;19;19930;-78
2022/11/11 06:31:23;;;;;;;;;;;;;;;6.09;78.23;99928.75;7388529;19;19952;-77
2022/11/11 06:34:08;;;;;;;;;;;;;;;6.26;77.46;99919.00;7382743;19;20647;-78
2022/11/11 06:36:53;;;;;;;;;;;;;;;6.25;77.66;99925.22;7386957;19;19958;-77
2022/11/11 06:39:38;;;;;;;;;;;;;;;6.24;78.04;99927.00;7393251;19;20254;-77
2022/11/11 06:42:23;;;;;;;;;;;;;;;6.36;77.99;99931.53;7393461;19;20546;-78
2022/11/11 06:45:08;;;;;;;;;;;;;;;6.47;77.14;99938.75;7391099;19;19929;-78
2022/11/11 06:47:53;;;;;;;;;;;;;;;6.43;77.16;99942.53;7391823;19;19930;-77
2022/11/11 06:50:38;;;;;;;;;;;;;;;6.28;77.54;99938.19;7393788;19;20505;-78
2022/11/11 06:53:24;;;;;;;;;;;;;;;6.32;77.70;99942.31;7397244;19;19925;-78
2022/11/11 06:56:11;;;;;;;;;;;;;;;6.37;77.67;99937.63;7400243;19;19953;-78
2022/11/11 06:58:56;;;;;;;;;;;;;;;6.34;78.06;99932.53;7396397;19;19926;-78
2022/11/11 07:01:41;;;;;;;;;;;;;;;6.53;77.81;99937.56;7393597;19;19953;-78
2022/11/11 07:04:26;;;;;;;;;;;;;;;6.48;77.65;99931.75;7391460;19;19926;-78
2022/11/11 07:07:11;;;;;;;;;;;;;;;6.53;77.63;99938.41;7392387;19;19934;-78
2022/11/11 07:09:56;;;;;;;;;;;;;;;6.67;77.34;99934.94;7394636;19;19913;-78
2022/11/11 07:12:41;;;;;;;;;;;;;;;6.76;77.62;99934.38;7391666;19;19926;-77
2022/11/11 07:15:27;;;;;;;;;;;;;;;6.76;77.92;99933.53;7391701;19;19921;-78
2022/11/11 07:18:12;;;;;;;;;;;;;;;6.73;78.33;99931.94;7394222;19;19951;-78
2022/11/11 07:20:57;;;;;;;;;;;;;;;6.87;78.21;99935.50;7392496;19;19949;-78
2022/11/11 07:23:42;;;;;;;;;;;;;;;6.88;78.19;99939.84;7391354;19;19931;-78
2022/11/11 07:26:27;;;;;;;;;;;;;;;6.99;78.15;99946.13;7393695;19;19922;-78
2022/11/11 07:29:14;;;;;;;;;;;;;;;7.12;78.02;99946.22;7393657;19;19925;-78
2022/11/11 07:31:59;;;;;;;;;;;;;;;7.23;77.97;99943.75;7394024;19;20350;-78
2022/11/11 07:34:44;;;;;;;;;;;;;;;7.21;77.72;99943.03;7393414;19;19961;-78
2022/11/11 07:37:29;;;;;;;;;;;;;;;7.28;77.41;99943.47;7392553;19;19933;-78
2022/11/11 07:40:15;;;;;;;;;;;;;;;7.36;77.51;99938.59;7393815;19;19922;-77
2022/11/11 07:43:00;;;;;;;;;;;;;;;7.36;77.64;99943.84;7398806;19;19925;-78
2022/11/11 07:45:45;;;;;;;;;;;;;;;7.29;78.00;99946.97;7399027;19;20242;-77
2022/11/11 07:48:30;;;;;;;;;;;;;;;7.41;77.48;99949.66;7400792;19;19933;-78
2022/11/11 07:51:15;;;;;;;;;;;;;;;7.45;77.51;99939.78;7399550;19;19929;-78
2022/11/11 07:54:00;;;;;;;;;;;;;;;7.48;77.73;99940.44;7400561;19;19925;-78
2022/11/11 07:56:45;;;;;;;;;;;;;;;7.61;77.67;99945.78;7400754;19;19937;-78
2022/11/11 07:59:30;;;;;;;;;;;;;;;7.73;77.37;99941.50;7411641;19;19983;-79
2022/11/11 08:02:14;;;;;;;;;;;;;;;7.82;77.29;99938.28;7401959;19;19982;-79
2022/11/11 08:04:59;;;;;;;;;;;;;;;7.65;77.62;99942.00;7399980;19;19933;-79
2022/11/11 08:07:44;;;;;;;;;;;;;;;7.71;77.41;99948.66;7401705;19;19930;-78
2022/11/11 08:10:30;;;;;;;;;;;;;;;7.75;77.53;99946.69;7400521;19;19948;-78
2022/11/11 08:13:50;;;;;;;;;;;;;;;7.78;77.54;99949.94;7399331;19;19922;-79
2022/11/11 08:16:26;;;;;;;;;;;;;;;7.83;77.84;99939.13;7401401;19;20321;-79
2022/11/11 08:19:11;;;;;;;;;;;;;;;7.94;77.42;99939.25;7400163;19;19934;-78
2022/11/11 08:21:56;;;;;;;;;;;;;;;8.00;77.51;99945.91;7399077;19;19929;-78
2022/11/11 08:24:41;;;;;;;;;;;;;;;8.08;77.06;99940.97;7399853;19;19926;-78
2022/11/11 08:27:46;;;;;;;;;;;;;;;8.03;77.17;99937.78;7402237;19;19946;-78
2022/11/11 08:30:31;;;;;;;;;;;;;;;8.16;77.06;99938.66;7401215;19;19921;-79
2022/11/11 08:33:17;;;;;;;;;;;;;;;8.24;77.17;99941.66;7397826;19;19918;-78
2022/11/11 08:36:17;;;;;;;;;;;;;;;8.28;77.05;99947.56;7410401;19;19938;-78
2022/11/11 08:39:05;;;;;;;;;;;;;;;8.30;77.11;99943.88;7414597;19;19926;-78
2022/11/11 08:41:51;;;;;;;;;;;;;;;8.40;76.86;99938.00;7411199;19;20289;-78
2022/11/11 08:44:36;;;;;;;;;;;;;;;8.49;76.68;99937.41;7403631;19;19947;-78
2022/11/11 08:47:22;;;;;;;;;;;;;;;8.58;76.63;99944.69;7401285;19;19933;-78
2022/11/11 08:50:07;;;;;;;;;;;;;;;8.70;76.77;99940.38;7406640;19;19951;-77
2022/11/11 08:52:52;;;;;;;;;;;;;;;8.82;77.00;99947.47;7407811;19;20433;-78
2022/11/11 08:55:37;;;;;;;;;;;;;;;8.91;76.44;99949.44;7413047;19;19941;-78
2022/11/11 08:58:22;;;;;;;;;;;;;;;8.87;76.64;99961.16;7410144;19;19922;-78
2022/11/11 09:01:14;;;;;;;;;;;;;;;8.90;76.58;99958.31;7409818;19;19936;-78
2022/11/11 09:03:59;;;;;;;;;;;;;;;8.91;76.56;99960.00;7410583;19;19935;-78
2022/11/11 09:07:04;;;;;;;;;;;;;;;9.13;76.87;99959.34;7403978;19;20347;-78
2022/11/11 09:09:50;;;;;;;;;;;;;;;9.32;77.13;99958.03;7402277;19;19921;-78
2022/11/11 09:12:35;;;;;;;;;;;;;;;9.44;76.85;99949.25;7398766;19;20242;-78
2022/11/11 09:15:20;;;;;;;;;;;;;;;9.54;76.81;99950.28;7397077;19;19939;-78
2022/11/11 09:18:05;;;;;;;;;;;;;;;9.80;76.77;99942.28;7398119;19;19956;-78
2022/11/11 09:20:51;;;;;;;;;;;;;;;9.99;76.40;99942.59;7399540;19;19929;-78
2022/11/11 09:23:36;;;;;;;;;;;;;;;10.24;75.77;99938.09;7397580;19;19985;-78
2022/11/11 09:26:21;;;;;;;;;;;;;;;10.26;75.51;99934.38;7398222;19;19921;-78
2022/11/11 09:29:06;;;;;;;;;;;;;;;10.43;74.99;99938.47;7398726;19;19926;-78
2022/11/11 09:31:51;;;;;;;;;;;;;;;10.55;74.99;99941.97;7396615;19;19929;-78
2022/11/11 09:34:36;;;;;;;;;;;;;;;10.59;73.89;99937.28;7394655;19;19998;-78
2022/11/11 09:37:21;;;;;;;;;;;;;;;10.70;74.27;99932.00;7396016;19;20330;-78
2022/11/11 09:40:08;;;;;;;;;;;;;;;10.67;72.96;99925.16;7399313;19;19929;-78
2022/11/11 09:43:05;;;;;;;;;;;;;;;10.99;74.07;99927.94;7398107;19;19953;-78
2022/11/11 09:45:50;;;;;;;;;;;;;;;11.18;73.61;99924.66;7401269;19;19961;-78
2022/11/11 09:48:48;;;;;;;;;;;;;;;11.25;73.54;99924.19;7401453;19;20499;-78
2022/11/11 09:51:40;;;;;;;;;;;;;;;11.37;71.85;99929.38;7399419;19;20396;-79
2022/11/11 09:54:29;;;;;;;;;;;;;;;11.40;72.59;99918.53;7398438;19;19949;-78
2022/11/11 09:57:16;;;;;;;;;;;;;;;11.45;72.57;99920.78;7397786;19;19931;-78
2022/11/11 10:00:02;;;;;;;;;;;;;;;11.51;71.13;99919.47;7400490;19;20268;-79
2022/11/11 10:02:54;;;;;;;;;;;;;;;11.60;71.43;99916.06;7398601;19;20440;-78
2022/11/11 10:05:58;;;;;;;;;;;;;;;11.58;71.66;99926.78;7403813;19;19939;-78
2022/11/11 10:08:43;;;;;;;;;;;;;;;11.60;71.19;99919.53;7379788;19;20000;-77
2022/11/11 10:11:31;;;;;;;;;;;;;;;11.59;71.09;99920.53;7380877;19;19929;-78
2022/11/11 10:14:16;;;;;;;;;;;;;;;11.78;71.31;99921.69;7381632;19;19941;-77
2022/11/11 10:17:01;;;;;;;;;;;;;;;11.74;71.47;99923.75;7382576;19;20016;-78
2022/11/11 10:20:10;;;;;;;;;;;;;;;11.71;72.45;99921.31;7380973;19;20282;-77
2022/11/11 10:23:14;;;;;;;;;;;;;;;11.68;72.09;99918.09;7378971;19;20350;-78
2022/11/11 10:26:01;;;;;;;;;;;;;;;11.81;71.79;99916.94;7380002;19;19962;-77
2022/11/11 10:28:47;;;;;;;;;;;;;;;11.89;70.68;99919.00;7385133;19;19957;-77
2022/11/11 10:31:32;;;;;;;;;;;;;;;11.86;70.97;99914.81;7379510;19;19930;-77
2022/11/11 10:34:17;;;;;;;;;;;;;;;11.97;71.30;99915.72;7382061;19;19951;-77
2022/11/11 10:37:02;;;;;;;;;;;;;;;12.04;71.35;99922.22;7383355;19;19929;-77
2022/11/11 10:39:57;;;;;;;;;;;;;;;12.13;71.96;99924.09;7384464;19;20477;-77
2022/11/11 10:42:41;;;;;;;;;;;;;;;12.02;71.29;99929.44;7383837;19;20330;-77
2022/11/11 10:45:43;;;;;;;;;;;;;;;12.11;71.22;99917.22;7384163;19;20452;-77
2022/11/11 10:48:37;;;;;;;;;;;;;;;12.17;71.75;99920.22;7382604;19;20006;-77
2022/11/11 10:51:29;;;;;;;;;;;;;;;12.19;71.38;99923.59;7380240;19;20012;-77
2022/11/11 10:54:14;;;;;;;;;;;;;;;12.36;71.75;99916.88;7380166;19;19960;-77
2022/11/11 10:57:03;;;;;;;;;;;;;;;12.48;72.19;99914.97;7382734;19;19934;-77
2022/11/11 10:59:51;;;;;;;;;;;;;;;12.68;71.00;99911.47;7383642;19;19925;-77
2022/11/11 11:02:42;;;;;;;;;;;;;;;12.70;69.80;99903.38;7382921;19;20502;-77
2022/11/11 11:05:31;;;;;;;;;;;;;;;12.93;70.82;99901.41;7383198;19;20278;-77
2022/11/11 11:08:18;;;;;;;;;;;;;;;12.99;70.02;99895.53;7382770;19;20028;-77
2022/11/11 11:11:08;;;;;;;;;;;;;;;12.99;69.09;99887.56;7382009;19;20028;-77
2022/11/11 11:14:01;;;;;;;;;;;;;;;12.97;68.07;99884.19;7381432;19;19937;-77
2022/11/11 11:16:50;;;;;;;;;;;;;;;12.99;69.98;99876.94;7380611;19;19926;-76
2022/11/11 11:19:35;;;;;;;;;;;;;;;13.02;69.72;99871.34;7380632;19;19936;-76
2022/11/11 11:22:21;;;;;;;;;;;;;;;13.04;71.35;99881.88;7383240;19;19960;-77
2022/11/11 11:25:10;;;;;;;;;;;;;;;13.11;69.74;99873.22;7381915;19;20032;-76
2022/11/11 11:28:09;;;;;;;;;;;;;;;13.09;69.64;99883.13;7383998;19;19936;-77
2022/11/11 11:31:02;;;;;;;;;;;;;;;12.90;69.51;99883.03;7382987;19;19942;-77
2022/11/11 11:33:54;;;;;;;;;;;;;;;12.80;70.28;99883.03;7383921;19;19937;-77
2022/11/11 11:36:39;;;;;;;;;;;;;;;12.81;71.70;99890.00;7382902;19;19939;-76
2022/11/11 11:39:31;;;;;;;;;;;;;;;13.02;71.03;99879.34;7384448;19;19926;-77
2022/11/11 11:42:35;;;;;;;;;;;;;;;13.15;70.39;99873.78;7381593;19;19937;-77
2022/11/11 11:45:31;;;;;;;;;;;;;;;13.24;71.36;99872.13;7384144;19;19933;-77
2022/11/11 11:48:22;;;;;;;;;;;;;;;13.28;71.39;99870.91;7387093;19;20254;-76
2022/11/11 11:51:15;;;;;;;;;;;;;;;13.45;71.02;99872.06;7380030;19;20741;-77
2022/11/11 11:54:19;;;;;;;;;;;;;;;13.41;70.49;99871.50;7384899;19;20011;-76
2022/11/11 11:57:07;;;;;;;;;;;;;;;13.38;70.20;99874.44;7381647;19;19929;-77
2022/11/11 11:59:55;;;;;;;;;;;;;;;13.41;70.35;99873.31;7381997;19;19930;-77
2022/11/11 12:02:49;;;;;;;;;;;;;;;13.49;69.87;99876.13;7382700;19;19944;-75
2022/11/11 12:05:42;;;;;;;;;;;;;;;13.47;68.90;99878.91;7383517;19;19945;-77
2022/11/11 12:08:33;;;;;;;;;;;;;;;13.60;69.68;99882.16;7378442;19;20035;-77
2022/11/11 12:11:28;;;;;;;;;;;;;;;13.70;69.62;99876.84;7379926;19;19929;-77
2022/11/11 12:14:32;;;;;;;;;;;;;;;13.62;70.03;99879.38;7382261;19;19925;-78
2022/11/11 12:17:32;;;;;;;;;;;;;;;13.72;70.13;99874.06;7385354;19;19925;-77
2022/11/11 12:20:21;;;;;;;;;;;;;;;13.64;66.53;99865.91;7385231;19;19922;-76
2022/11/11 12:23:12;;;;;;;;;;;;;;;13.58;67.37;99868.16;7378754;19;20350;-76
2022/11/11 12:26:12;;;;;;;;;;;;;;;13.58;67.44;99870.81;7376953;19;19922;-77
2022/11/11 12:29:16;;;;;;;;;;;;;;;13.42;66.30;99870.50;7384504;19;20692;-76
2022/11/11 12:32:09;;;;;;;;;;;;;;;13.57;68.84;99858.50;7386684;19;19953;-77
2022/11/11 12:34:54;;;;;;;;;;;;;;;13.52;69.61;99860.72;7381395;19;20389;-76
2022/11/11 12:37:40;;;;;;;;;;;;;;;13.42;67.09;99859.03;7379977;19;20385;-77
2022/11/11 12:40:42;;;;;;;;;;;;;;;13.47;68.96;99860.31;7372669;19;19941;-76
2022/11/11 12:43:35;;;;;;;;;;;;;;;13.46;68.67;99850.66;7387704;19;19925;-76
2022/11/11 12:46:40;;;;;;;;;;;;;;;13.50;69.09;99854.72;7383475;19;19930;-76
2022/11/11 12:49:30;;;;;;;;;;;;;;;13.58;66.72;99860.16;7387260;19;19926;-76
2022/11/11 12:52:23;;;;;;;;;;;;;;;13.65;67.50;99856.97;7381131;19;19925;-77
2022/11/11 12:55:23;;;;;;;;;;;;;;;13.68;67.67;99852.22;7385857;19;20251;-77
2022/11/11 12:58:12;;;;;;;;;;;;;;;13.63;67.60;99841.16;7383224;19;19926;-77
2022/11/11 13:01:00;;;;;;;;;;;;;;;13.61;67.70;99841.31;7380123;19;19918;-77
2022/11/11 13:03:55;;;;;;;;;;;;;;;13.65;68.79;99841.03;7383784;19;19921;-76
2022/11/11 13:06:43;;;;;;;;;;;;;;;13.66;71.56;99842.69;7385202;19;19939;-77
2022/11/11 13:09:47;;;;;;;;;;;;;;;13.87;69.78;99839.88;7385629;19;19953;-76
2022/11/11 13:12:42;;;;;;;;;;;;;;;13.96;69.22;99839.88;7382696;19;19925;-76
2022/11/11 13:15:28;;;;;;;;;;;;;;;14.15;67.20;99838.19;7383880;19;19929;-76
2022/11/11 13:18:16;;;;;;;;;;;;;;;14.16;68.45;99837.19;7383935;19;19942;-76
2022/11/11 13:21:13;;;;;;;;;;;;;;;14.16;69.85;99829.22;7396955;19;19921;-76
2022/11/11 13:23:59;;;;;;;;;;;;;;;14.46;69.30;99841.47;7384888;19;20330;-77
2022/11/11 13:26:45;;;;;;;;;;;;;;;14.29;66.88;99845.72;7384906;19;19926;-76
2022/11/11 13:29:34;;;;;;;;;;;;;;;14.24;69.13;99837.31;7382305;19;19937;-77
2022/11/11 13:32:21;;;;;;;;;;;;;;;14.36;69.33;99836.16;7377001;19;19925;-76
2022/11/11 13:35:17;;;;;;;;;;;;;;;14.21;69.79;99832.28;7369748;19;19954;-76
2022/11/11 13:38:04;;;;;;;;;;;;;;;14.13;70.39;99838.31;7370751;19;19934;-77
2022/11/11 13:40:50;;;;;;;;;;;;;;;14.03;70.78;99837.50;7371839;19;19933;-76
2022/11/11 13:46:43;;;;;;;;;;;;;;;14.07;69.49;99830.09;7305161;19;19925;-75
2022/11/11 13:49:40;;;;;;;;;;;;;;;14.21;67.64;99830.44;7364582;19;19939;-77
2022/11/11 13:52:35;;;;;;;;;;;;;;;14.17;69.00;99823.75;7382017;19;19960;-75
2022/11/11 13:55:28;;;;;;;;;;;;;;;14.13;70.51;99826.84;7377024;19;21639;-76
2022/11/11 13:58:24;;;;;;;;;;;;;;;14.08;70.24;99823.75;7369253;19;19953;-76
2022/11/11 14:01:09;;;;;;;;;;;;;;;13.96;69.76;99823.09;7382030;19;20333;-77
2022/11/11 14:03:58;;;;;;;;;;;;;;;13.80;70.47;99829.81;7386396;19;19928;-77
2022/11/11 14:06:47;;;;;;;;;;;;;;;13.69;70.54;99827.31;7388404;19;20550;-75
2022/11/11 14:09:51;;;;;;;;;;;;;;;13.63;70.68;99832.34;7391572;19;19921;-76
2022/11/11 14:12:38;;;;;;;;;;;;;;;13.58;69.44;99846.03;7391986;19;19922;-77
2022/11/11 14:15:42;;;;;;;;;;;;;;;13.64;68.59;99839.31;7386073;19;19950;-76
2022/11/11 14:18:32;;;;;;;;;;;;;;;13.72;68.02;99853.63;7382412;19;19918;-77
2022/11/11 14:21:36;;;;;;;;;;;;;;;13.79;67.03;99833.44;7382948;19;19922;-77
2022/11/11 14:24:22;;;;;;;;;;;;;;;13.95;68.56;99848.84;7383850;19;19933;-76
2022/11/11 14:27:07;;;;;;;;;;;;;;;14.00;67.52;99848.41;7388281;19;20014;-77
2022/11/11 14:29:53;;;;;;;;;;;;;;;13.83;69.10;99845.50;7385900;19;19923;-76
2022/11/11 14:32:38;;;;;;;;;;;;;;;13.75;69.70;99842.69;7390834;19;20842;-77
2022/11/11 14:35:36;;;;;;;;;;;;;;;13.66;70.41;99843.53;7385258;19;20597;-76
2022/11/11 14:38:39;;;;;;;;;;;;;;;13.66;69.85;99837.38;7379767;19;19926;-77
2022/11/11 14:41:37;;;;;;;;;;;;;;;13.48;71.00;99846.06;7383331;19;19922;-77
2022/11/11 14:44:28;;;;;;;;;;;;;;;13.30;72.31;99848.53;7383521;19;19926;-75
2022/11/11 14:47:14;;;;;;;;;;;;;;;13.21;72.20;99843.16;7384821;19;20345;-77
2022/11/11 14:49:59;;;;;;;;;;;;;;;13.13;72.60;99846.50;7384547;19;20404;-76
2022/11/11 14:52:44;;;;;;;;;;;;;;;13.04;71.99;99837.53;7384413;19;20011;-76
2022/11/11 14:55:33;;;;;;;;;;;;;;;12.94;72.80;99836.66;7385496;19;19925;-76
2022/11/11 14:58:23;;;;;;;;;;;;;;;12.83;73.49;99844.75;7387093;19;20349;-77
2022/11/11 15:01:11;;;;;;;;;;;;;;;12.72;73.06;99845.69;7388831;19;20286;-76
2022/11/11 15:03:59;;;;;;;;;;;;;;;12.59;73.44;99845.91;7382631;19;19939;-77
2022/11/11 15:06:49;;;;;;;;;;;;;;;12.52;73.79;99855.34;7384034;19;19934;-77
2022/11/11 15:09:46;;;;;;;;;;;;;;;12.41;73.62;99845.66;7389504;19;19953;-76
2022/11/11 15:12:38;;;;;;;;;;;;;;;12.33;74.09;99842.81;7386185;19;19921;-77
2022/11/11 15:15:44;;;;;;;;;;;;;;;12.24;74.84;99844.47;7382037;19;19926;-77
2022/11/11 15:18:32;;;;;;;;;;;;;;;12.19;74.91;99844.00;7383228;19;19943;-76
2022/11/11 15:21:19;;;;;;;;;;;;;;;12.09;74.96;99856.34;7387150;19;19930;-77
2022/11/11 15:24:24;;;;;;;;;;;;;;;12.02;75.67;99849.88;7387777;19;20333;-76
2022/11/11 15:27:15;;;;;;;;;;;;;;;11.96;75.27;99847.75;7379264;19;20285;-76
2022/11/11 15:30:11;;;;;;;;;;;;;;;11.87;75.19;99852.00;7381237;19;20001;-77
2022/11/11 15:33:01;;;;;;;;;;;;;;;11.83;74.99;99846.06;7387201;19;19925;-77
2022/11/11 15:36:05;;;;;;;;;;;;;;;11.81;75.08;99844.53;7382932;19;20334;-75
2022/11/11 15:38:55;;;;;;;;;;;;;;;11.67;75.76;99835.06;7383503;19;19928;-76
2022/11/11 15:41:41;;;;;;;;;;;;;;;11.58;75.71;99835.81;7386589;19;20249;-78
2022/11/11 15:44:30;;;;;;;;;;;;;;;11.46;75.90;99839.50;7382482;19;20091;-77
2022/11/11 15:47:16;;;;;;;;;;;;;;;11.37;76.23;99844.56;7382354;19;19925;-76
2022/11/11 15:50:01;;;;;;;;;;;;;;;11.27;76.42;99840.13;7386087;19;20258;-77
2022/11/11 15:52:46;;;;;;;;;;;;;;;11.16;76.86;99846.28;7387786;19;19934;-77
2022/11/11 15:55:32;;;;;;;;;;;;;;;11.11;76.62;99845.81;7386240;19;19943;-75
2022/11/11 15:58:23;;;;;;;;;;;;;;;11.02;76.77;99851.84;7384525;19;19928;-77